sensor_id;sensor_type;location;lat;lon;timestamp;P1;durP1;ratioP1;P2;durP2;ratioP2
10963;SDS011;5534;48.784;9.190;2023-04-25T00:01:39;1.60;;;0.90;;
10963;SDS011;5534;48.784;9.190;2023-04-25T00:04:05;0.93;;;0.70;;
10963;SDS011;5534;48.784;9.190;2023-04-25T00:06:32;1.07;;;0.97;;
10963;SDS011;5534;48.784;9.190;2023-04-25T00:09:01;1.00;;;0.90;;
10963;SDS011;5534;48.784;9.190;2023-04-25T00:11:35;2.47;;;1.00;;
10963;SDS011;5534;48.784;9.190;2023-04-25T00:14:01;1.10;;;1.00;;
10963;SDS011;5534;48.784;9.190;2023-04-25T00:16:28;1.35;;;0.90;;
10963;SDS011;5534;48.784;9.190;2023-04-25T00:18:55;0.90;;;0.90;;
10963;SDS011;5534;48.784;9.190;2023-04-25T00:21:22;2.70;;;1.10;;
10963;SDS011;5534;48.784;9.190;2023-04-25T00:23:50;1.27;;;1.03;;
10963;SDS011;5534;48.784;9.190;2023-04-25T00:26:17;1.37;;;1.00;;
10963;SDS011;5534;48.784;9.190;2023-04-25T00:28:43;2.50;;;1.13;;
10963;SDS011;5534;48.784;9.190;2023-04-25T00:31:08;2.67;;;1.20;;
10963;SDS011;5534;48.784;9.190;2023-04-25T00:33:34;3.77;;;1.87;;
10963;SDS011;5534;48.784;9.190;2023-04-25T00:36:01;3.40;;;1.17;;
10963;SDS011;5534;48.784;9.190;2023-04-25T00:38:26;1.20;;;1.03;;
10963;SDS011;5534;48.784;9.190;2023-04-25T00:40:52;1.73;;;1.20;;
10963;SDS011;5534;48.784;9.190;2023-04-25T00:43:19;1.40;;;0.87;;
10963;SDS011;5534;48.784;9.190;2023-04-25T00:45:44;1.33;;;0.60;;
10963;SDS011;5534;48.784;9.190;2023-04-25T00:48:13;1.10;;;1.00;;
10963;SDS011;5534;48.784;9.190;2023-04-25T00:50:39;1.50;;;1.00;;
10963;SDS011;5534;48.784;9.190;2023-04-25T00:53:05;1.63;;;1.10;;
10963;SDS011;5534;48.784;9.190;2023-04-25T00:55:32;3.33;;;1.17;;
10963;SDS011;5534;48.784;9.190;2023-04-25T00:57:59;2.67;;;1.00;;
10963;SDS011;5534;48.784;9.190;2023-04-25T01:00:25;2.23;;;0.90;;
10963;SDS011;5534;48.784;9.190;2023-04-25T01:02:51;2.27;;;1.10;;
10963;SDS011;5534;48.784;9.190;2023-04-25T01:05:17;2.10;;;1.40;;
10963;SDS011;5534;48.784;9.190;2023-04-25T01:07:44;2.53;;;1.10;;
10963;SDS011;5534;48.784;9.190;2023-04-25T01:10:10;2.60;;;1.07;;
10963;SDS011;5534;48.784;9.190;2023-04-25T01:12:36;1.23;;;1.13;;
10963;SDS011;5534;48.784;9.190;2023-04-25T01:15:02;1.50;;;1.10;;
10963;SDS011;5534;48.784;9.190;2023-04-25T01:17:28;1.53;;;1.10;;
10963;SDS011;5534;48.784;9.190;2023-04-25T01:19:54;1.40;;;1.30;;
10963;SDS011;5534;48.784;9.190;2023-04-25T01:22:20;2.50;;;1.27;;
10963;SDS011;5534;48.784;9.190;2023-04-25T01:24:46;1.97;;;1.27;;
10963;SDS011;5534;48.784;9.190;2023-04-25T01:27:12;1.50;;;1.00;;
10963;SDS011;5534;48.784;9.190;2023-04-25T01:29:38;2.30;;;1.50;;
10963;SDS011;5534;48.784;9.190;2023-04-25T01:32:05;1.48;;;1.00;;
10963;SDS011;5534;48.784;9.190;2023-04-25T01:34:31;2.03;;;0.93;;
10963;SDS011;5534;48.784;9.190;2023-04-25T01:36:58;2.13;;;0.90;;
10963;SDS011;5534;48.784;9.190;2023-04-25T01:39:25;1.90;;;1.23;;
10963;SDS011;5534;48.784;9.190;2023-04-25T01:41:51;2.47;;;1.57;;
10963;SDS011;5534;48.784;9.190;2023-04-25T01:44:17;3.53;;;1.30;;
10963;SDS011;5534;48.784;9.190;2023-04-25T01:46:43;1.70;;;1.40;;
10963;SDS011;5534;48.784;9.190;2023-04-25T01:49:09;1.53;;;1.10;;
10963;SDS011;5534;48.784;9.190;2023-04-25T01:51:37;1.17;;;1.03;;
10963;SDS011;5534;48.784;9.190;2023-04-25T01:54:03;2.55;;;1.13;;
10963;SDS011;5534;48.784;9.190;2023-04-25T01:56:29;2.67;;;1.40;;
10963;SDS011;5534;48.784;9.190;2023-04-25T01:59:02;1.93;;;1.50;;
10963;SDS011;5534;48.784;9.190;2023-04-25T02:01:30;1.50;;;1.40;;
10963;SDS011;5534;48.784;9.190;2023-04-25T02:03:56;2.40;;;1.30;;
10963;SDS011;5534;48.784;9.190;2023-04-25T02:06:22;1.60;;;1.50;;
10963;SDS011;5534;48.784;9.190;2023-04-25T02:08:48;2.03;;;1.43;;
10963;SDS011;5534;48.784;9.190;2023-04-25T02:11:14;3.00;;;1.30;;
10963;SDS011;5534;48.784;9.190;2023-04-25T02:13:40;2.13;;;1.40;;
10963;SDS011;5534;48.784;9.190;2023-04-25T02:16:05;1.35;;;1.25;;
10963;SDS011;5534;48.784;9.190;2023-04-25T02:18:31;1.92;;;1.10;;
10963;SDS011;5534;48.784;9.190;2023-04-25T02:21:01;1.37;;;1.23;;
10963;SDS011;5534;48.784;9.190;2023-04-25T02:23:28;2.77;;;1.40;;
10963;SDS011;5534;48.784;9.190;2023-04-25T02:25:54;2.07;;;1.10;;
10963;SDS011;5534;48.784;9.190;2023-04-25T02:28:21;2.27;;;1.40;;
10963;SDS011;5534;48.784;9.190;2023-04-25T02:30:46;3.22;;;1.38;;
10963;SDS011;5534;48.784;9.190;2023-04-25T02:33:12;3.10;;;1.40;;
10963;SDS011;5534;48.784;9.190;2023-04-25T02:35:38;2.20;;;1.37;;
10963;SDS011;5534;48.784;9.190;2023-04-25T02:38:06;2.17;;;1.20;;
10963;SDS011;5534;48.784;9.190;2023-04-25T02:40:32;2.00;;;1.27;;
10963;SDS011;5534;48.784;9.190;2023-04-25T02:42:58;2.17;;;1.30;;
10963;SDS011;5534;48.784;9.190;2023-04-25T02:45:23;3.30;;;1.57;;
10963;SDS011;5534;48.784;9.190;2023-04-25T02:47:49;2.93;;;1.30;;
10963;SDS011;5534;48.784;9.190;2023-04-25T02:50:15;2.47;;;1.40;;
10963;SDS011;5534;48.784;9.190;2023-04-25T02:52:41;6.43;;;1.50;;
10963;SDS011;5534;48.784;9.190;2023-04-25T02:55:06;1.50;;;1.40;;
10963;SDS011;5534;48.784;9.190;2023-04-25T02:57:32;3.83;;;1.60;;
10963;SDS011;5534;48.784;9.190;2023-04-25T02:59:58;1.87;;;1.20;;
10963;SDS011;5534;48.784;9.190;2023-04-25T03:02:24;4.50;;;1.43;;
10963;SDS011;5534;48.784;9.190;2023-04-25T03:04:50;2.03;;;1.33;;
10963;SDS011;5534;48.784;9.190;2023-04-25T03:07:15;2.40;;;1.30;;
10963;SDS011;5534;48.784;9.190;2023-04-25T03:09:41;4.83;;;1.47;;
10963;SDS011;5534;48.784;9.190;2023-04-25T03:12:07;2.27;;;1.30;;
10963;SDS011;5534;48.784;9.190;2023-04-25T03:14:33;2.47;;;1.20;;
10963;SDS011;5534;48.784;9.190;2023-04-25T03:16:58;3.33;;;1.03;;
10963;SDS011;5534;48.784;9.190;2023-04-25T03:19:24;2.40;;;1.00;;
10963;SDS011;5534;48.784;9.190;2023-04-25T03:21:50;3.33;;;1.23;;
10963;SDS011;5534;48.784;9.190;2023-04-25T03:24:15;3.30;;;1.63;;
10963;SDS011;5534;48.784;9.190;2023-04-25T03:26:41;1.53;;;1.33;;
10963;SDS011;5534;48.784;9.190;2023-04-25T03:29:07;1.80;;;0.77;;
10963;SDS011;5534;48.784;9.190;2023-04-25T03:31:33;2.03;;;1.17;;
10963;SDS011;5534;48.784;9.190;2023-04-25T03:33:59;2.03;;;1.17;;
10963;SDS011;5534;48.784;9.190;2023-04-25T03:36:24;1.90;;;1.13;;
10963;SDS011;5534;48.784;9.190;2023-04-25T03:38:50;1.77;;;1.30;;
10963;SDS011;5534;48.784;9.190;2023-04-25T03:41:16;1.17;;;0.90;;
10963;SDS011;5534;48.784;9.190;2023-04-25T03:43:41;2.73;;;1.17;;
10963;SDS011;5534;48.784;9.190;2023-04-25T03:46:07;2.00;;;1.17;;
10963;SDS011;5534;48.784;9.190;2023-04-25T03:48:33;1.47;;;1.20;;
10963;SDS011;5534;48.784;9.190;2023-04-25T03:50:59;2.57;;;1.23;;
10963;SDS011;5534;48.784;9.190;2023-04-25T03:53:25;2.07;;;1.20;;
10963;SDS011;5534;48.784;9.190;2023-04-25T03:55:51;1.43;;;1.33;;
10963;SDS011;5534;48.784;9.190;2023-04-25T03:58:17;2.17;;;1.20;;
10963;SDS011;5534;48.784;9.190;2023-04-25T04:00:42;1.52;;;0.98;;
10963;SDS011;5534;48.784;9.190;2023-04-25T04:03:08;1.00;;;0.90;;
10963;SDS011;5534;48.784;9.190;2023-04-25T04:05:34;3.83;;;1.50;;
10963;SDS011;5534;48.784;9.190;2023-04-25T04:07:59;1.23;;;1.10;;
10963;SDS011;5534;48.784;9.190;2023-04-25T04:10:25;2.23;;;1.03;;
10963;SDS011;5534;48.784;9.190;2023-04-25T04:12:51;1.10;;;1.00;;
10963;SDS011;5534;48.784;9.190;2023-04-25T04:15:17;1.50;;;1.10;;
10963;SDS011;5534;48.784;9.190;2023-04-25T04:17:42;1.30;;;1.03;;
10963;SDS011;5534;48.784;9.190;2023-04-25T04:20:09;1.50;;;1.20;;
10963;SDS011;5534;48.784;9.190;2023-04-25T04:22:35;2.20;;;1.40;;
10963;SDS011;5534;48.784;9.190;2023-04-25T04:25:01;3.03;;;1.27;;
10963;SDS011;5534;48.784;9.190;2023-04-25T04:27:27;2.23;;;1.50;;
10963;SDS011;5534;48.784;9.190;2023-04-25T04:29:54;4.40;;;1.57;;
10963;SDS011;5534;48.784;9.190;2023-04-25T04:32:20;2.57;;;1.60;;
10963;SDS011;5534;48.784;9.190;2023-04-25T04:34:45;2.90;;;1.23;;
10963;SDS011;5534;48.784;9.190;2023-04-25T04:37:12;1.80;;;1.17;;
10963;SDS011;5534;48.784;9.190;2023-04-25T04:39:38;2.17;;;1.53;;
10963;SDS011;5534;48.784;9.190;2023-04-25T04:42:04;2.57;;;1.60;;
10963;SDS011;5534;48.784;9.190;2023-04-25T04:44:30;2.97;;;1.60;;
10963;SDS011;5534;48.784;9.190;2023-04-25T04:47:00;4.00;;;1.80;;
10963;SDS011;5534;48.784;9.190;2023-04-25T04:49:27;2.47;;;1.77;;
10963;SDS011;5534;48.784;9.190;2023-04-25T04:51:53;1.87;;;1.33;;
10963;SDS011;5534;48.784;9.190;2023-04-25T04:54:19;3.07;;;1.30;;
10963;SDS011;5534;48.784;9.190;2023-04-25T04:56:45;4.07;;;1.87;;
10963;SDS011;5534;48.784;9.190;2023-04-25T04:59:11;2.37;;;1.53;;
10963;SDS011;5534;48.784;9.190;2023-04-25T05:01:37;2.30;;;1.70;;
10963;SDS011;5534;48.784;9.190;2023-04-25T05:04:02;3.03;;;1.33;;
10963;SDS011;5534;48.784;9.190;2023-04-25T05:06:29;2.23;;;1.70;;
10963;SDS011;5534;48.784;9.190;2023-04-25T05:08:56;5.43;;;2.00;;
10963;SDS011;5534;48.784;9.190;2023-04-25T05:11:24;2.87;;;1.53;;
10963;SDS011;5534;48.784;9.190;2023-04-25T05:13:52;3.97;;;1.90;;
10963;SDS011;5534;48.784;9.190;2023-04-25T05:16:18;2.60;;;2.00;;
10963;SDS011;5534;48.784;9.190;2023-04-25T05:18:45;2.40;;;1.60;;
10963;SDS011;5534;48.784;9.190;2023-04-25T05:21:12;1.67;;;1.50;;
10963;SDS011;5534;48.784;9.190;2023-04-25T05:23:38;2.90;;;1.70;;
10963;SDS011;5534;48.784;9.190;2023-04-25T05:26:03;2.10;;;1.50;;
10963;SDS011;5534;48.784;9.190;2023-04-25T05:28:29;4.33;;;1.97;;
10963;SDS011;5534;48.784;9.190;2023-04-25T05:30:55;2.90;;;1.80;;
10963;SDS011;5534;48.784;9.190;2023-04-25T05:33:23;3.35;;;1.88;;
10963;SDS011;5534;48.784;9.190;2023-04-25T05:35:48;2.40;;;1.87;;
10963;SDS011;5534;48.784;9.190;2023-04-25T05:38:15;4.17;;;2.00;;
10963;SDS011;5534;48.784;9.190;2023-04-25T05:40:41;2.83;;;1.60;;
10963;SDS011;5534;48.784;9.190;2023-04-25T05:43:06;1.80;;;1.53;;
10963;SDS011;5534;48.784;9.190;2023-04-25T05:45:32;2.97;;;1.70;;
10963;SDS011;5534;48.784;9.190;2023-04-25T05:47:58;3.07;;;1.73;;
10963;SDS011;5534;48.784;9.190;2023-04-25T05:50:24;3.63;;;1.70;;
10963;SDS011;5534;48.784;9.190;2023-04-25T05:52:51;2.93;;;2.33;;
10963;SDS011;5534;48.784;9.190;2023-04-25T05:55:17;1.60;;;1.50;;
10963;SDS011;5534;48.784;9.190;2023-04-25T05:57:42;2.00;;;1.53;;
10963;SDS011;5534;48.784;9.190;2023-04-25T06:00:11;1.97;;;1.53;;
10963;SDS011;5534;48.784;9.190;2023-04-25T06:02:38;3.10;;;1.83;;
10963;SDS011;5534;48.784;9.190;2023-04-25T06:05:04;1.97;;;1.50;;
10963;SDS011;5534;48.784;9.190;2023-04-25T06:07:30;1.63;;;1.40;;
10963;SDS011;5534;48.784;9.190;2023-04-25T06:09:56;1.10;;;1.00;;
10963;SDS011;5534;48.784;9.190;2023-04-25T06:12:22;2.60;;;1.20;;
10963;SDS011;5534;48.784;9.190;2023-04-25T06:14:51;1.33;;;1.23;;
10963;SDS011;5534;48.784;9.190;2023-04-25T06:17:17;1.70;;;1.33;;
10963;SDS011;5534;48.784;9.190;2023-04-25T06:19:43;2.40;;;1.53;;
10963;SDS011;5534;48.784;9.190;2023-04-25T06:22:09;1.83;;;1.23;;
10963;SDS011;5534;48.784;9.190;2023-04-25T06:24:35;3.20;;;1.40;;
10963;SDS011;5534;48.784;9.190;2023-04-25T06:27:01;2.83;;;1.63;;
10963;SDS011;5534;48.784;9.190;2023-04-25T06:29:27;3.47;;;1.60;;
10963;SDS011;5534;48.784;9.190;2023-04-25T06:31:52;1.73;;;1.43;;
10963;SDS011;5534;48.784;9.190;2023-04-25T06:34:18;2.37;;;1.43;;
10963;SDS011;5534;48.784;9.190;2023-04-25T06:36:44;2.67;;;1.60;;
10963;SDS011;5534;48.784;9.190;2023-04-25T06:39:10;2.57;;;1.30;;
10963;SDS011;5534;48.784;9.190;2023-04-25T06:41:35;2.17;;;1.30;;
10963;SDS011;5534;48.784;9.190;2023-04-25T06:44:02;2.20;;;1.40;;
10963;SDS011;5534;48.784;9.190;2023-04-25T06:46:27;2.33;;;1.40;;
10963;SDS011;5534;48.784;9.190;2023-04-25T06:48:56;19.07;;;4.93;;
10963;SDS011;5534;48.784;9.190;2023-04-25T06:51:24;7.80;;;3.55;;
10963;SDS011;5534;48.784;9.190;2023-04-25T06:53:53;4.03;;;1.87;;
10963;SDS011;5534;48.784;9.190;2023-04-25T06:56:19;4.60;;;2.13;;
10963;SDS011;5534;48.784;9.190;2023-04-25T06:58:46;5.03;;;2.20;;
10963;SDS011;5534;48.784;9.190;2023-04-25T07:01:16;10.70;;;3.47;;
10963;SDS011;5534;48.784;9.190;2023-04-25T07:03:42;10.37;;;3.40;;
10963;SDS011;5534;48.784;9.190;2023-04-25T07:06:08;5.93;;;2.30;;
10963;SDS011;5534;48.784;9.190;2023-04-25T07:08:33;2.00;;;1.80;;
10963;SDS011;5534;48.784;9.190;2023-04-25T07:10:59;1.90;;;1.70;;
10963;SDS011;5534;48.784;9.190;2023-04-25T07:13:25;2.87;;;2.00;;
10963;SDS011;5534;48.784;9.190;2023-04-25T07:15:50;2.67;;;1.90;;
10963;SDS011;5534;48.784;9.190;2023-04-25T07:18:16;5.83;;;4.80;;
10963;SDS011;5534;48.784;9.190;2023-04-25T07:20:42;7.83;;;3.10;;
10963;SDS011;5534;48.784;9.190;2023-04-25T07:23:09;4.70;;;2.27;;
10963;SDS011;5534;48.784;9.190;2023-04-25T07:25:35;2.67;;;1.77;;
10963;SDS011;5534;48.784;9.190;2023-04-25T07:28:01;2.83;;;2.37;;
10963;SDS011;5534;48.784;9.190;2023-04-25T07:30:27;3.33;;;2.10;;
10963;SDS011;5534;48.784;9.190;2023-04-25T07:32:53;2.43;;;2.20;;
10963;SDS011;5534;48.784;9.190;2023-04-25T07:35:20;5.10;;;3.37;;
10963;SDS011;5534;48.784;9.190;2023-04-25T07:37:46;3.37;;;2.67;;
10963;SDS011;5534;48.784;9.190;2023-04-25T07:40:12;2.40;;;2.20;;
10963;SDS011;5534;48.784;9.190;2023-04-25T07:42:38;2.57;;;1.80;;
10963;SDS011;5534;48.784;9.190;2023-04-25T07:45:05;2.33;;;1.97;;
10963;SDS011;5534;48.784;9.190;2023-04-25T07:47:31;3.47;;;2.03;;
10963;SDS011;5534;48.784;9.190;2023-04-25T07:49:57;2.50;;;2.10;;
10963;SDS011;5534;48.784;9.190;2023-04-25T07:52:23;2.70;;;2.23;;
10963;SDS011;5534;48.784;9.190;2023-04-25T07:54:49;3.60;;;2.30;;
10963;SDS011;5534;48.784;9.190;2023-04-25T07:57:15;2.60;;;2.40;;
10963;SDS011;5534;48.784;9.190;2023-04-25T07:59:42;2.60;;;2.37;;
10963;SDS011;5534;48.784;9.190;2023-04-25T08:02:08;3.03;;;2.33;;
10963;SDS011;5534;48.784;9.190;2023-04-25T08:04:34;2.73;;;2.17;;
10963;SDS011;5534;48.784;9.190;2023-04-25T08:06:59;2.70;;;2.43;;
10963;SDS011;5534;48.784;9.190;2023-04-25T08:09:25;4.07;;;2.60;;
10963;SDS011;5534;48.784;9.190;2023-04-25T08:11:51;4.77;;;3.60;;
10963;SDS011;5534;48.784;9.190;2023-04-25T08:14:17;6.53;;;4.97;;
10963;SDS011;5534;48.784;9.190;2023-04-25T08:16:43;3.90;;;3.00;;
10963;SDS011;5534;48.784;9.190;2023-04-25T08:19:09;3.47;;;2.80;;
10963;SDS011;5534;48.784;9.190;2023-04-25T08:21:36;4.90;;;2.83;;
10963;SDS011;5534;48.784;9.190;2023-04-25T08:24:01;3.07;;;2.53;;
10963;SDS011;5534;48.784;9.190;2023-04-25T08:26:28;2.47;;;2.27;;
10963;SDS011;5534;48.784;9.190;2023-04-25T08:28:54;5.13;;;2.70;;
10963;SDS011;5534;48.784;9.190;2023-04-25T08:31:19;4.83;;;3.70;;
10963;SDS011;5534;48.784;9.190;2023-04-25T08:33:46;8.57;;;3.00;;
10963;SDS011;5534;48.784;9.190;2023-04-25T08:36:13;4.40;;;2.70;;
10963;SDS011;5534;48.784;9.190;2023-04-25T08:38:39;4.23;;;2.40;;
10963;SDS011;5534;48.784;9.190;2023-04-25T08:41:05;5.33;;;2.30;;
10963;SDS011;5534;48.784;9.190;2023-04-25T08:43:31;5.83;;;2.67;;
10963;SDS011;5534;48.784;9.190;2023-04-25T08:45:58;6.13;;;3.03;;
10963;SDS011;5534;48.784;9.190;2023-04-25T08:48:28;3.37;;;2.13;;
10963;SDS011;5534;48.784;9.190;2023-04-25T08:50:57;3.00;;;2.40;;
10963;SDS011;5534;48.784;9.190;2023-04-25T08:53:28;3.87;;;2.57;;
10963;SDS011;5534;48.784;9.190;2023-04-25T08:55:55;4.20;;;2.30;;
10963;SDS011;5534;48.784;9.190;2023-04-25T08:58:22;2.37;;;2.13;;
10963;SDS011;5534;48.784;9.190;2023-04-25T09:00:49;6.07;;;2.30;;
10963;SDS011;5534;48.784;9.190;2023-04-25T09:03:16;5.60;;;2.30;;
10963;SDS011;5534;48.784;9.190;2023-04-25T09:05:43;2.60;;;2.10;;
10963;SDS011;5534;48.784;9.190;2023-04-25T09:08:09;2.83;;;2.00;;
10963;SDS011;5534;48.784;9.190;2023-04-25T09:10:35;5.90;;;2.73;;
10963;SDS011;5534;48.784;9.190;2023-04-25T09:13:05;4.27;;;2.60;;
10963;SDS011;5534;48.784;9.190;2023-04-25T09:15:46;5.63;;;2.73;;
10963;SDS011;5534;48.784;9.190;2023-04-25T09:18:29;5.27;;;2.53;;
10963;SDS011;5534;48.784;9.190;2023-04-25T09:20:57;3.40;;;3.10;;
10963;SDS011;5534;48.784;9.190;2023-04-25T09:26:08;7.57;;;4.30;;
10963;SDS011;5534;48.784;9.190;2023-04-25T09:28:35;4.70;;;3.27;;
10963;SDS011;5534;48.784;9.190;2023-04-25T09:31:03;3.17;;;2.77;;
10963;SDS011;5534;48.784;9.190;2023-04-25T09:33:29;3.63;;;2.60;;
10963;SDS011;5534;48.784;9.190;2023-04-25T09:36:07;3.37;;;2.90;;
10963;SDS011;5534;48.784;9.190;2023-04-25T09:38:41;6.73;;;3.03;;
10963;SDS011;5534;48.784;9.190;2023-04-25T09:41:09;5.10;;;3.23;;
10963;SDS011;5534;48.784;9.190;2023-04-25T09:43:36;4.13;;;3.00;;
10963;SDS011;5534;48.784;9.190;2023-04-25T09:46:02;6.20;;;3.00;;
10963;SDS011;5534;48.784;9.190;2023-04-25T09:48:32;5.67;;;3.30;;
10963;SDS011;5534;48.784;9.190;2023-04-25T09:51:08;3.83;;;2.67;;
10963;SDS011;5534;48.784;9.190;2023-04-25T09:53:41;6.80;;;3.23;;
10963;SDS011;5534;48.784;9.190;2023-04-25T09:56:09;5.00;;;2.90;;
10963;SDS011;5534;48.784;9.190;2023-04-25T09:58:36;3.60;;;2.60;;
10963;SDS011;5534;48.784;9.190;2023-04-25T10:01:05;2.77;;;2.37;;
10963;SDS011;5534;48.784;9.190;2023-04-25T10:03:36;3.50;;;2.43;;
10963;SDS011;5534;48.784;9.190;2023-04-25T10:06:07;1.87;;;1.67;;
10963;SDS011;5534;48.784;9.190;2023-04-25T10:08:44;3.30;;;1.73;;
10963;SDS011;5534;48.784;9.190;2023-04-25T10:11:11;2.10;;;1.90;;
10963;SDS011;5534;48.784;9.190;2023-04-25T10:13:41;1.40;;;1.23;;
10963;SDS011;5534;48.784;9.190;2023-04-25T10:16:08;2.33;;;1.50;;
10963;SDS011;5534;48.784;9.190;2023-04-25T10:18:33;0.97;;;0.90;;
10963;SDS011;5534;48.784;9.190;2023-04-25T10:21:00;1.60;;;1.40;;
10963;SDS011;5534;48.784;9.190;2023-04-25T10:23:29;2.63;;;1.73;;
10963;SDS011;5534;48.784;9.190;2023-04-25T10:25:56;1.33;;;1.20;;
10963;SDS011;5534;48.784;9.190;2023-04-25T10:28:22;2.07;;;1.60;;
10963;SDS011;5534;48.784;9.190;2023-04-25T10:31:04;1.93;;;1.40;;
10963;SDS011;5534;48.784;9.190;2023-04-25T10:33:33;3.70;;;2.20;;
10963;SDS011;5534;48.784;9.190;2023-04-25T10:36:08;3.90;;;1.90;;
10963;SDS011;5534;48.784;9.190;2023-04-25T10:38:38;2.17;;;1.87;;
10963;SDS011;5534;48.784;9.190;2023-04-25T10:41:05;3.20;;;2.30;;
10963;SDS011;5534;48.784;9.190;2023-04-25T10:46:12;1.63;;;1.30;;
10963;SDS011;5534;48.784;9.190;2023-04-25T10:48:51;1.10;;;1.00;;
10963;SDS011;5534;48.784;9.190;2023-04-25T10:58:48;2.70;;;2.17;;
10963;SDS011;5534;48.784;9.190;2023-04-25T11:01:15;2.50;;;2.17;;
10963;SDS011;5534;48.784;9.190;2023-04-25T11:03:45;3.10;;;2.50;;
10963;SDS011;5534;48.784;9.190;2023-04-25T11:06:20;4.93;;;2.43;;
10963;SDS011;5534;48.784;9.190;2023-04-25T11:08:49;3.33;;;1.90;;
10963;SDS011;5534;48.784;9.190;2023-04-25T11:11:16;2.57;;;1.97;;
10963;SDS011;5534;48.784;9.190;2023-04-25T11:13:43;2.50;;;1.90;;
10963;SDS011;5534;48.784;9.190;2023-04-25T11:16:09;4.27;;;1.90;;
10963;SDS011;5534;48.784;9.190;2023-04-25T11:18:34;4.53;;;2.40;;
10963;SDS011;5534;48.784;9.190;2023-04-25T11:21:02;2.97;;;1.97;;
10963;SDS011;5534;48.784;9.190;2023-04-25T11:23:29;2.23;;;1.90;;
10963;SDS011;5534;48.784;9.190;2023-04-25T11:25:55;3.70;;;2.43;;
10963;SDS011;5534;48.784;9.190;2023-04-25T11:28:21;3.57;;;2.53;;
10963;SDS011;5534;48.784;9.190;2023-04-25T11:30:48;3.67;;;2.77;;
10963;SDS011;5534;48.784;9.190;2023-04-25T11:33:17;4.53;;;3.17;;
10963;SDS011;5534;48.784;9.190;2023-04-25T11:35:43;7.93;;;5.60;;
10963;SDS011;5534;48.784;9.190;2023-04-25T11:38:09;5.30;;;3.93;;
10963;SDS011;5534;48.784;9.190;2023-04-25T11:40:36;2.07;;;1.80;;
10963;SDS011;5534;48.784;9.190;2023-04-25T11:43:01;7.03;;;4.57;;
10963;SDS011;5534;48.784;9.190;2023-04-25T11:45:28;1.83;;;1.60;;
10963;SDS011;5534;48.784;9.190;2023-04-25T11:47:55;1.50;;;1.37;;
10963;SDS011;5534;48.784;9.190;2023-04-25T11:50:25;1.70;;;1.40;;
10963;SDS011;5534;48.784;9.190;2023-04-25T11:52:55;1.97;;;1.50;;
10963;SDS011;5534;48.784;9.190;2023-04-25T11:55:22;2.43;;;1.80;;
10963;SDS011;5534;48.784;9.190;2023-04-25T11:57:48;4.33;;;2.20;;
10963;SDS011;5534;48.784;9.190;2023-04-25T12:00:16;4.73;;;2.33;;
10963;SDS011;5534;48.784;9.190;2023-04-25T12:02:46;2.73;;;2.00;;
10963;SDS011;5534;48.784;9.190;2023-04-25T12:05:15;1.83;;;1.63;;
10963;SDS011;5534;48.784;9.190;2023-04-25T12:07:43;2.50;;;2.10;;
10963;SDS011;5534;48.784;9.190;2023-04-25T12:10:13;3.57;;;2.50;;
10963;SDS011;5534;48.784;9.190;2023-04-25T12:12:47;4.97;;;2.37;;
10963;SDS011;5534;48.784;9.190;2023-04-25T12:15:14;3.17;;;2.20;;
10963;SDS011;5534;48.784;9.190;2023-04-25T12:17:47;2.50;;;2.30;;
10963;SDS011;5534;48.784;9.190;2023-04-25T12:20:15;5.67;;;2.50;;
10963;SDS011;5534;48.784;9.190;2023-04-25T12:22:42;3.83;;;2.27;;
10963;SDS011;5534;48.784;9.190;2023-04-25T12:25:13;3.00;;;2.50;;
10963;SDS011;5534;48.784;9.190;2023-04-25T12:31:01;4.43;;;2.93;;
10963;SDS011;5534;48.784;9.190;2023-04-25T12:33:33;8.33;;;3.93;;
10963;SDS011;5534;48.784;9.190;2023-04-25T12:35:59;3.70;;;3.00;;
10963;SDS011;5534;48.784;9.190;2023-04-25T12:38:34;7.07;;;3.33;;
10963;SDS011;5534;48.784;9.190;2023-04-25T12:41:02;4.43;;;3.00;;
10963;SDS011;5534;48.784;9.190;2023-04-25T12:43:27;4.07;;;3.23;;
10963;SDS011;5534;48.784;9.190;2023-04-25T12:45:54;3.70;;;2.87;;
10963;SDS011;5534;48.784;9.190;2023-04-25T12:48:21;3.53;;;3.10;;
10963;SDS011;5534;48.784;9.190;2023-04-25T12:50:47;5.70;;;3.40;;
10963;SDS011;5534;48.784;9.190;2023-04-25T12:53:17;4.60;;;3.47;;
10963;SDS011;5534;48.784;9.190;2023-04-25T12:55:44;4.17;;;3.30;;
10963;SDS011;5534;48.784;9.190;2023-04-25T12:58:12;4.20;;;3.37;;
10963;SDS011;5534;48.784;9.190;2023-04-25T13:00:42;4.13;;;3.40;;
10963;SDS011;5534;48.784;9.190;2023-04-25T13:03:09;4.40;;;3.13;;
10963;SDS011;5534;48.784;9.190;2023-04-25T13:05:36;4.20;;;3.60;;
10963;SDS011;5534;48.784;9.190;2023-04-25T13:08:02;5.67;;;3.13;;
10963;SDS011;5534;48.784;9.190;2023-04-25T13:10:29;4.50;;;3.33;;
10963;SDS011;5534;48.784;9.190;2023-04-25T13:12:55;5.00;;;3.30;;
10963;SDS011;5534;48.784;9.190;2023-04-25T13:15:20;4.50;;;3.80;;
10963;SDS011;5534;48.784;9.190;2023-04-25T13:17:47;6.33;;;3.87;;
10963;SDS011;5534;48.784;9.190;2023-04-25T13:20:12;5.87;;;3.77;;
10963;SDS011;5534;48.784;9.190;2023-04-25T13:22:40;6.07;;;4.20;;
10963;SDS011;5534;48.784;9.190;2023-04-25T13:25:06;5.43;;;3.53;;
10963;SDS011;5534;48.784;9.190;2023-04-25T13:27:34;5.07;;;3.37;;
10963;SDS011;5534;48.784;9.190;2023-04-25T13:30:02;5.03;;;3.57;;
10963;SDS011;5534;48.784;9.190;2023-04-25T13:32:36;5.03;;;3.93;;
10963;SDS011;5534;48.784;9.190;2023-04-25T13:35:06;9.50;;;4.83;;
10963;SDS011;5534;48.784;9.190;2023-04-25T13:37:34;11.87;;;3.83;;
10963;SDS011;5534;48.784;9.190;2023-04-25T13:40:00;5.63;;;4.37;;
10963;SDS011;5534;48.784;9.190;2023-04-25T13:42:35;8.97;;;5.20;;
10963;SDS011;5534;48.784;9.190;2023-04-25T13:45:01;6.80;;;4.80;;
10963;SDS011;5534;48.784;9.190;2023-04-25T13:47:28;7.00;;;4.50;;
10963;SDS011;5534;48.784;9.190;2023-04-25T13:49:55;8.03;;;4.23;;
10963;SDS011;5534;48.784;9.190;2023-04-25T13:52:21;10.37;;;5.33;;
10963;SDS011;5534;48.784;9.190;2023-04-25T13:54:49;8.37;;;5.10;;
10963;SDS011;5534;48.784;9.190;2023-04-25T13:57:16;9.00;;;4.93;;
10963;SDS011;5534;48.784;9.190;2023-04-25T13:59:42;7.80;;;5.47;;
10963;SDS011;5534;48.784;9.190;2023-04-25T14:02:08;6.43;;;4.57;;
10963;SDS011;5534;48.784;9.190;2023-04-25T14:04:34;12.43;;;5.60;;
10963;SDS011;5534;48.784;9.190;2023-04-25T14:07:02;7.50;;;4.73;;
10963;SDS011;5534;48.784;9.190;2023-04-25T14:09:28;6.33;;;5.10;;
10963;SDS011;5534;48.784;9.190;2023-04-25T14:11:54;6.13;;;5.10;;
10963;SDS011;5534;48.784;9.190;2023-04-25T14:14:21;7.40;;;5.10;;
10963;SDS011;5534;48.784;9.190;2023-04-25T14:16:48;6.63;;;4.57;;
10963;SDS011;5534;48.784;9.190;2023-04-25T14:19:15;5.67;;;4.70;;
10963;SDS011;5534;48.784;9.190;2023-04-25T14:21:42;5.35;;;4.00;;
10963;SDS011;5534;48.784;9.190;2023-04-25T14:24:08;9.07;;;4.43;;
10963;SDS011;5534;48.784;9.190;2023-04-25T14:26:36;6.67;;;4.73;;
10963;SDS011;5534;48.784;9.190;2023-04-25T14:29:02;4.25;;;3.83;;
10963;SDS011;5534;48.784;9.190;2023-04-25T14:31:29;4.83;;;3.83;;
10963;SDS011;5534;48.784;9.190;2023-04-25T14:33:55;9.10;;;4.43;;
10963;SDS011;5534;48.784;9.190;2023-04-25T14:36:20;6.18;;;3.90;;
10963;SDS011;5534;48.784;9.190;2023-04-25T14:38:46;5.22;;;3.08;;
10963;SDS011;5534;48.784;9.190;2023-04-25T14:41:12;5.07;;;2.87;;
10963;SDS011;5534;48.784;9.190;2023-04-25T14:43:38;7.03;;;3.70;;
10963;SDS011;5534;48.784;9.190;2023-04-25T14:46:05;3.13;;;2.60;;
10963;SDS011;5534;48.784;9.190;2023-04-25T14:48:32;4.78;;;2.80;;
10963;SDS011;5534;48.784;9.190;2023-04-25T14:50:58;3.10;;;2.77;;
10963;SDS011;5534;48.784;9.190;2023-04-25T14:53:25;4.03;;;2.40;;
10963;SDS011;5534;48.784;9.190;2023-04-25T14:55:52;4.38;;;2.65;;
10963;SDS011;5534;48.784;9.190;2023-04-25T14:58:18;3.87;;;2.77;;
10963;SDS011;5534;48.784;9.190;2023-04-25T15:00:43;4.03;;;2.77;;
10963;SDS011;5534;48.784;9.190;2023-04-25T15:03:09;4.37;;;3.20;;
10963;SDS011;5534;48.784;9.190;2023-04-25T15:05:38;3.47;;;3.05;;
10963;SDS011;5534;48.784;9.190;2023-04-25T15:08:06;5.70;;;3.20;;
10963;SDS011;5534;48.784;9.190;2023-04-25T15:10:33;4.57;;;3.57;;
10963;SDS011;5534;48.784;9.190;2023-04-25T15:12:59;4.78;;;3.08;;
10963;SDS011;5534;48.784;9.190;2023-04-25T15:15:25;5.27;;;3.50;;